Toyofujimaru No.2 — 7JDI — position and weather

sailwx.info

Track history (hours):
 
Tides and Currents Weather Stations Pressure Air Temp Water Temp Dewpoint Dewpoint Depression Visibility Wind Speed Wind Dir Waves Ship Positions

Toyofujimaru No.2

Last reported at 2014-Sep-15 16:33 UTC. Time now 2014-Sep-16 00:59 UTC.
Position N 36°13' E 141°02'.

Length 165 m; draft 6.5 m.

Type: Cargo ship. MMSI: 432667000.

Date/timePositionNaut miles runAvg speedWind from/ knotsBaromVisibWave heightAir tempDewpointWater temp
2014-Sep-15 16:33N 36°13' E 141°02'1818.2
2014-Sep-15 15:32N 35°55' E 140°60'1919.1
2014-Sep-15 14:33N 35°36' E 140°56'2019.4
2014-Sep-15 13:31N 35°20' E 140°41'2121.3
2014-Sep-15 12:31N 35°04' E 140°24'2121.4
2014-Sep-15 11:33N 34°54' E 140°02'1716.9
2014-Sep-15 10:33N 34°59' E 139°43'1716.7
2014-Sep-15 09:33N 35°15' E 139°46'1212.0
2014-Sep-15 08:33N 35°27' E 139°45'3 3.3
2014-Sep-15 07:32N 35°30' E 139°46'0 0.0
2014-Sep-15 06:32N 35°30' E 139°46'0 0.0
2014-Sep-15 05:32N 35°30' E 139°46'0 0.4
2014-Sep-15 04:33N 35°30' E 139°45'9 8.7
2014-Sep-15 03:33N 35°23' E 139°39'0 0.0
2014-Sep-15 02:31N 35°23' E 139°39'0 0.0
2014-Sep-15 01:31N 35°23' E 139°39'0 0.0
2014-Sep-15 00:31N 35°23' E 139°39'0 0.0
2014-Sep-14 23:31N 35°23' E 139°39'0 0.0
2014-Sep-14 22:31N 35°23' E 139°39'6 5.9
2014-Sep-14 21:34N 35°19' E 139°44'1413.7
2014-Sep-14 20:33N 35°06' E 139°42'2120.9
2014-Sep-14 19:33N 34°51' E 139°23'4318.5
2014-Sep-14 17:14N 34°32' E 138°36'5 0.2
2014-Sep-13 15:33N 34°29' E 138°32'5616.5
2014-Sep-13 12:10N 34°49' E 139°35'9 5.6
2014-Sep-13 10:28N 34°58' E 139°39'1516.6
2014-Sep-13 09:33N 35°12' E 139°46'1212.0
2014-Sep-13 08:33N 35°23' E 139°41'1 1.3
2014-Sep-13 07:31N 35°23' E 139°39'0 0.0
2014-Sep-13 06:31N 35°23' E 139°39'0 0.0
2014-Sep-13 05:31N 35°23' E 139°39'0 0.0
2014-Sep-13 04:31N 35°23' E 139°39'0 0.0
2014-Sep-13 03:31N 35°23' E 139°39'0 0.0
2014-Sep-13 02:31N 35°23' E 139°39'4 4.1
2014-Sep-13 01:33N 35°21' E 139°43'1313.0
2014-Sep-13 00:33N 35°08' E 139°46'1716.3
2014-Sep-12 23:32N 34°52' E 139°48'1818.6
2014-Sep-12 22:33N 34°59' E 140°09'1818.3
2014-Sep-12 21:33N 35°09' E 140°27'1717.0
2014-Sep-12 20:33N 35°22' E 140°40'1918.9
2014-Sep-12 19:33N 35°38' E 140°53'1918.9
2014-Sep-12 18:33N 35°56' E 140°59'1918.7
2014-Sep-12 17:33N 36°15' E 141°02'1919.1
2014-Sep-12 16:33N 36°34' E 141°04'10 0.5
2014-Sep-11 18:26N 36°44' E 141°06'1617.7
2014-Sep-11 17:32N 36°28' E 141°04'1717.6
2014-Sep-11 16:33N 36°11' E 141°02'1717.0
2014-Sep-11 15:33N 35°54' E 140°59'1817.9
2014-Sep-11 14:33N 35°37' E 140°53'1918.9
2014-Sep-11 13:33N 35°21' E 140°40'2020.1
2014-Sep-11 12:33N 35°05' E 140°25'2020.5
2014-Sep-11 11:33N 34°55' E 140°04'1716.6
2014-Sep-11 10:33N 34°56' E 139°44'1716.7
2014-Sep-11 09:33N 35°13' E 139°46'1413.5
2014-Sep-11 08:33N 35°26' E 139°45'4 4.3
2014-Sep-11 07:31N 35°30' E 139°46'0 0.0
2014-Sep-11 06:31N 35°30' E 139°46'0 0.0
2014-Sep-11 05:31N 35°30' E 139°46'0 0.0
2014-Sep-11 04:31N 35°30' E 139°46'0 0.0
2014-Sep-11 03:33N 35°30' E 139°46'9 9.0
2014-Sep-11 02:34N 35°23' E 139°39'0 0.0
2014-Sep-11 01:32N 35°23' E 139°39'0 0.0
2014-Sep-11 00:32N 35°23' E 139°39'0 0.0
2014-Sep-10 23:32N 35°23' E 139°39'0 0.0
2014-Sep-10 22:32N 35°23' E 139°39'6 6.1
2014-Sep-10 21:32N 35°19' E 139°44'1212.2
2014-Sep-10 20:33N 35°07' E 139°45'7617.3
2014-Sep-10 16:11N 34°30' E 138°24'9 0.3
2014-Sep-09 15:20N 34°31' E 138°34'4415.8
2014-Sep-09 12:33N 34°56' E 139°19'10 9.2
2014-Sep-09 11:29N 35°04' E 139°27'1 1.2
2014-Sep-09 10:33N 35°02' E 139°26'1515.0
2014-Sep-09 09:33N 35°08' E 139°44'1312.6
2014-Sep-09 08:33N 35°20' E 139°42'4 4.1
2014-Sep-09 07:32N 35°23' E 139°39'0 0.0
2014-Sep-09 06:32N 35°23' E 139°39'0 0.0
2014-Sep-09 05:32N 35°23' E 139°39'0 0.0
2014-Sep-09 04:32N 35°23' E 139°39'0 0.0
2014-Sep-09 03:32N 35°23' E 139°39'0 0.0
2014-Sep-09 02:32N 35°23' E 139°39'3 3.3
2014-Sep-09 01:34N 35°21' E 139°42'1212.4
2014-Sep-09 00:33N 35°09' E 139°46'1616.4
2014-Sep-08 23:33N 34°53' E 139°49'1716.5
2014-Sep-08 22:33N 34°58' E 140°08'1916.3
2014-Sep-08 21:25N 35°08' E 140°27'1618.6
2014-Sep-08 20:33N 35°21' E 140°39'1919.3
2014-Sep-08 19:33N 35°37' E 140°52'1918.7
2014-Sep-08 18:33N 35°55' E 140°58'1919.0
2014-Sep-08 17:33N 36°14' E 141°02'51 2.3
2014-Sep-07 19:33N 37°04' E 141°08'1817.0
2014-Sep-07 18:31N 36°47' E 141°06'1617.0
2014-Sep-07 17:33N 36°31' E 141°04'1716.8
2014-Sep-07 16:33N 36°14' E 141°02'1716.9
2014-Sep-07 15:33N 35°57' E 140°60'1717.2
2014-Sep-07 14:33N 35°40' E 140°56'1717.2
2014-Sep-07 13:33N 35°26' E 140°45'1817.8
2014-Sep-07 12:34N 35°11' E 140°34'1918.8
2014-Sep-07 11:33N 35°00' E 140°14'1919.3
2014-Sep-07 10:33N 34°52' E 139°53'1414.3
2014-Sep-07 09:33N 35°05' E 139°44'1414.0
2014-Sep-07 08:34N 35°19' E 139°43'1211.8
2014-Sep-07 07:33N 35°30' E 139°46'0 0.0
2014-Sep-07 06:28N 35°30' E 139°46'0 0.0
2014-Sep-07 05:31N 35°30' E 139°46'0 0.0
2014-Sep-07 04:25N 35°30' E 139°46'0 0.2
2014-Sep-07 03:33N 35°30' E 139°46'9 8.9
2014-Sep-07 02:33N 35°23' E 139°39'0 0.0
2014-Sep-07 01:29N 35°23' E 139°39'0 0.0
2014-Sep-07 00:32N 35°23' E 139°39'0 0.0
2014-Sep-06 23:32N 35°23' E 139°39'0 0.0
2014-Sep-06 22:32N 35°23' E 139°39'6 6.0
2014-Sep-06 21:33N 35°19' E 139°44'1313.1
2014-Sep-06 20:33N 35°06' E 139°44'1818.4
2014-Sep-06 19:33N 34°52' E 139°29'5617.9
2014-Sep-06 16:27N 34°31' E 138°26'  
Track history (hours):
 
Tides and Currents Weather Stations Pressure Air Temp Water Temp Dewpoint Dewpoint Depression Visibility Wind Speed Wind Dir Waves Ship Positions

Toyofujimaru No.2

Last reported at 2014-Sep-15 16:33 UTC. Time now 2014-Sep-16 00:59 UTC.
Position N 36°13' E 141°02'.

Length 165 m; draft 6.5 m.

Type: Cargo ship. MMSI: 432667000.

Date/timePositionNaut miles runAvg speedWind from/ knotsBaromVisibWave heightAir tempDewpointWater temp
2014-Sep-15 16:33N 36°13' E 141°02'1818.2
2014-Sep-15 15:32N 35°55' E 140°60'1919.1
2014-Sep-15 14:33N 35°36' E 140°56'2019.4
2014-Sep-15 13:31N 35°20' E 140°41'2121.3
2014-Sep-15 12:31N 35°04' E 140°24'2121.4
2014-Sep-15 11:33N 34°54' E 140°02'1716.9
2014-Sep-15 10:33N 34°59' E 139°43'1716.7
2014-Sep-15 09:33N 35°15' E 139°46'1212.0
2014-Sep-15 08:33N 35°27' E 139°45'3 3.3
2014-Sep-15 07:32N 35°30' E 139°46'0 0.0
2014-Sep-15 06:32N 35°30' E 139°46'0 0.0
2014-Sep-15 05:32N 35°30' E 139°46'0 0.4
2014-Sep-15 04:33N 35°30' E 139°45'9 8.7
2014-Sep-15 03:33N 35°23' E 139°39'0 0.0
2014-Sep-15 02:31N 35°23' E 139°39'0 0.0
2014-Sep-15 01:31N 35°23' E 139°39'0 0.0
2014-Sep-15 00:31N 35°23' E 139°39'0 0.0
2014-Sep-14 23:31N 35°23' E 139°39'0 0.0
2014-Sep-14 22:31N 35°23' E 139°39'6 5.9
2014-Sep-14 21:34N 35°19' E 139°44'1413.7
2014-Sep-14 20:33N 35°06' E 139°42'2120.9
2014-Sep-14 19:33N 34°51' E 139°23'4318.5
2014-Sep-14 17:14N 34°32' E 138°36'5 0.2
2014-Sep-13 15:33N 34°29' E 138°32'5616.5
2014-Sep-13 12:10N 34°49' E 139°35'9 5.6
2014-Sep-13 10:28N 34°58' E 139°39'1516.6
2014-Sep-13 09:33N 35°12' E 139°46'1212.0
2014-Sep-13 08:33N 35°23' E 139°41'1 1.3
2014-Sep-13 07:31N 35°23' E 139°39'0 0.0
2014-Sep-13 06:31N 35°23' E 139°39'0 0.0
2014-Sep-13 05:31N 35°23' E 139°39'0 0.0
2014-Sep-13 04:31N 35°23' E 139°39'0 0.0
2014-Sep-13 03:31N 35°23' E 139°39'0 0.0
2014-Sep-13 02:31N 35°23' E 139°39'4 4.1
2014-Sep-13 01:33N 35°21' E 139°43'1313.0
2014-Sep-13 00:33N 35°08' E 139°46'1716.3
2014-Sep-12 23:32N 34°52' E 139°48'1818.6
2014-Sep-12 22:33N 34°59' E 140°09'1818.3
2014-Sep-12 21:33N 35°09' E 140°27'1717.0
2014-Sep-12 20:33N 35°22' E 140°40'1918.9
2014-Sep-12 19:33N 35°38' E 140°53'1918.9
2014-Sep-12 18:33N 35°56' E 140°59'1918.7
2014-Sep-12 17:33N 36°15' E 141°02'1919.1
2014-Sep-12 16:33N 36°34' E 141°04'10 0.5
2014-Sep-11 18:26N 36°44' E 141°06'1617.7
2014-Sep-11 17:32N 36°28' E 141°04'1717.6
2014-Sep-11 16:33N 36°11' E 141°02'1717.0
2014-Sep-11 15:33N 35°54' E 140°59'1817.9
2014-Sep-11 14:33N 35°37' E 140°53'1918.9
2014-Sep-11 13:33N 35°21' E 140°40'2020.1
2014-Sep-11 12:33N 35°05' E 140°25'2020.5
2014-Sep-11 11:33N 34°55' E 140°04'1716.6
2014-Sep-11 10:33N 34°56' E 139°44'1716.7
2014-Sep-11 09:33N 35°13' E 139°46'1413.5
2014-Sep-11 08:33N 35°26' E 139°45'4 4.3
2014-Sep-11 07:31N 35°30' E 139°46'0 0.0
2014-Sep-11 06:31N 35°30' E 139°46'0 0.0
2014-Sep-11 05:31N 35°30' E 139°46'0 0.0
2014-Sep-11 04:31N 35°30' E 139°46'0 0.0
2014-Sep-11 03:33N 35°30' E 139°46'9 9.0
2014-Sep-11 02:34N 35°23' E 139°39'0 0.0
2014-Sep-11 01:32N 35°23' E 139°39'0 0.0
2014-Sep-11 00:32N 35°23' E 139°39'0 0.0
2014-Sep-10 23:32N 35°23' E 139°39'0 0.0
2014-Sep-10 22:32N 35°23' E 139°39'6 6.1
2014-Sep-10 21:32N 35°19' E 139°44'1212.2
2014-Sep-10 20:33N 35°07' E 139°45'7617.3
2014-Sep-10 16:11N 34°30' E 138°24'9 0.3
2014-Sep-09 15:20N 34°31' E 138°34'4415.8
2014-Sep-09 12:33N 34°56' E 139°19'10 9.2
2014-Sep-09 11:29N 35°04' E 139°27'1 1.2
2014-Sep-09 10:33N 35°02' E 139°26'1515.0
2014-Sep-09 09:33N 35°08' E 139°44'1312.6
2014-Sep-09 08:33N 35°20' E 139°42'4 4.1
2014-Sep-09 07:32N 35°23' E 139°39'0 0.0
2014-Sep-09 06:32N 35°23' E 139°39'0 0.0
2014-Sep-09 05:32N 35°23' E 139°39'0 0.0
2014-Sep-09 04:32N 35°23' E 139°39'0 0.0
2014-Sep-09 03:32N 35°23' E 139°39'0 0.0
2014-Sep-09 02:32N 35°23' E 139°39'3 3.3
2014-Sep-09 01:34N 35°21' E 139°42'1212.4
2014-Sep-09 00:33N 35°09' E 139°46'1616.4
2014-Sep-08 23:33N 34°53' E 139°49'1716.5
2014-Sep-08 22:33N 34°58' E 140°08'1916.3
2014-Sep-08 21:25N 35°08' E 140°27'1618.6
2014-Sep-08 20:33N 35°21' E 140°39'1919.3
2014-Sep-08 19:33N 35°37' E 140°52'1918.7
2014-Sep-08 18:33N 35°55' E 140°58'1919.0
2014-Sep-08 17:33N 36°14' E 141°02'51 2.3
2014-Sep-07 19:33N 37°04' E 141°08'1817.0
2014-Sep-07 18:31N 36°47' E 141°06'1617.0
2014-Sep-07 17:33N 36°31' E 141°04'1716.8
2014-Sep-07 16:33N 36°14' E 141°02'1716.9
2014-Sep-07 15:33N 35°57' E 140°60'1717.2
2014-Sep-07 14:33N 35°40' E 140°56'1717.2
2014-Sep-07 13:33N 35°26' E 140°45'1817.8
2014-Sep-07 12:34N 35°11' E 140°34'1918.8
2014-Sep-07 11:33N 35°00' E 140°14'1919.3
2014-Sep-07 10:33N 34°52' E 139°53'1414.3
2014-Sep-07 09:33N 35°05' E 139°44'1414.0
2014-Sep-07 08:34N 35°19' E 139°43'1211.8
2014-Sep-07 07:33N 35°30' E 139°46'0 0.0
2014-Sep-07 06:28N 35°30' E 139°46'0 0.0
2014-Sep-07 05:31N 35°30' E 139°46'0 0.0
2014-Sep-07 04:25N 35°30' E 139°46'0 0.2
2014-Sep-07 03:33N 35°30' E 139°46'9 8.9
2014-Sep-07 02:33N 35°23' E 139°39'0 0.0
2014-Sep-07 01:29N 35°23' E 139°39'0 0.0
2014-Sep-07 00:32N 35°23' E 139°39'0 0.0
2014-Sep-06 23:32N 35°23' E 139°39'0 0.0
2014-Sep-06 22:32N 35°23' E 139°39'6 6.0
2014-Sep-06 21:33N 35°19' E 139°44'1313.1
2014-Sep-06 20:33N 35°06' E 139°44'1818.4
2014-Sep-06 19:33N 34°52' E 139°29'5617.9
2014-Sep-06 16:27N 34°31' E 138°26'  

Dump ship's entire track history